ROMMA est une association bénévole à but non lucratif. Votre soutien est indispensable : ADHERER à ROMMA ou FAIRE un DON

St-Christophe/Guiers - Berland - (38, Isère)

Massif de la Chartreuse (533 m)   Longitude: 05° 46' 44" E   Latitude: 45° 25' 43" N Station partenaire n°32
 

Détail journalier du     <<     >>

Température Precipitation Humidité Pression Vent Dir Rafale Dir. rafale Ensol.
Heure (°C) (mm) (%) (hPa) (km/h) (km/h) (min)
01:00 11.106510123ENE6NE0
02:00 10.707010112ENE6E0
03:00 11.406410112ENE15NNE0
04:00 10.407110091N15ENE0
05:00 10.0067100805NE0
06:00 9.607010071---8NNO0
07:00 9.107310071---10ENE0
08:00 9.107810071---11NO0
09:00 11.1074100600---0
10:00 13.1068100500---0
11:00 14.806010052ONO6O20
12:00 17.004710054ONO10ONO40
13:00 19.304310044ONO10ONO45
14:00 20.504710025SO15SO55
15:00 20.804710026ONO16OSO60
16:00 21.105010015O16ONO45
17:00 20.405510005O15O0
18:00 20.305210002O6ONO0
19:00 19.406099900---0
20:00 19.70339996ENE23ESE0
21:00 19.00339996E26E0
22:00 18.00389994ESE16ENE0
23:00 18.10359997ESE32ENE0
minuit 17.10469999ESE37ENE0

Graphique du 22-04-2019

 

Serveur OMMA